Time;durP1;ratioP1;P1;durP2;ratioP2;P2;SDS_P1;SDS_P2;PMS_P1;PMS_P2;Temp;Humidity;BMP_temperature;BMP_pressure;BME280_temperature;BME280_humidity;BME280_pressure;Samples;Min_cycle;Max_cycle;Signal;HPM_P1;HPM_P2
2022/06/24 00:00:37;;;;;;;8.13;6.55;;;;;;;;;;5051889;28;20084;-87
2022/06/24 00:03:03;;;;;;;7.18;6.03;;;;;;;;;;5046684;28;20041;-85
2022/06/24 00:05:30;;;;;;;7.70;6.43;;;;;;;;;;5051683;28;20080;-86
2022/06/24 00:07:56;;;;;;;7.07;6.38;;;;;;;;;;5053087;28;20041;-85
2022/06/24 00:10:25;;;;;;;7.40;6.53;;;;;;;;;;5051508;28;20077;-85
2022/06/24 00:12:52;;;;;;;7.10;6.50;;;;;;;;;;5054221;28;20128;-86
2022/06/24 00:15:25;;;;;;;7.20;6.53;;;;;;;;;;5051823;28;20099;-86
2022/06/24 00:17:51;;;;;;;7.00;6.40;;;;;;;;;;5053149;28;20049;-85
2022/06/24 00:20:18;;;;;;;7.57;6.80;;;;;;;;;;5052214;28;20045;-86
2022/06/24 00:22:45;;;;;;;8.10;6.93;;;;;;;;;;5051727;28;20045;-86
2022/06/24 00:25:13;;;;;;;9.55;8.55;;;;;;;;;;5052708;28;20124;-86
2022/06/24 00:27:40;;;;;;;8.38;7.57;;;;;;;;;;5053173;28;20107;-86
2022/06/24 00:30:10;;;;;;;8.85;7.88;;;;;;;;;;5051232;28;20072;-86
2022/06/24 00:32:36;;;;;;;8.90;8.00;;;;;;;;;;5044674;28;20052;-86
2022/06/24 00:35:07;;;;;;;9.95;9.05;;;;;;;;;;5052109;28;20049;-86
2022/06/24 00:37:33;;;;;;;9.30;8.35;;;;;;;;;;5052062;28;20052;-85
2022/06/24 00:40:12;;;;;;;9.45;8.45;;;;;;;;;;5050959;28;20045;-85
2022/06/24 00:42:38;;;;;;;8.75;7.88;;;;;;;;;;5051550;28;20178;-86
2022/06/24 00:45:04;;;;;;;10.85;9.13;;;;;;;;;;5044544;28;20045;-85
2022/06/24 00:47:31;;;;;;;9.70;8.82;;;;;;;;;;5053661;28;20049;-85
2022/06/24 00:49:59;;;;;;;10.10;9.10;;;;;;;;;;5023803;28;20088;-85
2022/06/24 00:52:25;;;;;;;9.50;8.57;;;;;;;;;;5033850;28;20057;-85
2022/06/24 00:54:51;;;;;;;11.00;8.80;;;;;;;;;;5043886;28;20132;-85
2022/06/24 00:57:18;;;;;;;10.02;9.10;;;;;;;;;;5051267;28;20052;-85
2022/06/24 00:59:45;;;;;;;9.60;8.70;;;;;;;;;;5052106;28;20052;-85
2022/06/24 01:02:14;;;;;;;9.02;8.20;;;;;;;;;;5050394;28;20080;-85
2022/06/24 01:04:40;;;;;;;9.25;8.35;;;;;;;;;;5049368;28;20045;-85
2022/06/24 01:07:06;;;;;;;9.60;8.60;;;;;;;;;;5050821;28;20076;-85
2022/06/24 01:09:32;;;;;;;10.10;8.48;;;;;;;;;;5052183;28;20395;-85
2022/06/24 01:11:58;;;;;;;9.23;8.40;;;;;;;;;;5051738;28;20385;-85
2022/06/24 01:14:24;;;;;;;9.82;8.82;;;;;;;;;;5051305;28;20515;-85
2022/06/24 01:16:50;;;;;;;9.45;8.18;;;;;;;;;;5050135;28;20045;-86
2022/06/24 01:19:16;;;;;;;9.05;8.13;;;;;;;;;;5052393;28;20143;-86
2022/06/24 01:21:47;;;;;;;9.30;8.40;;;;;;;;;;5051395;28;20132;-85
2022/06/24 01:24:17;;;;;;;9.48;8.57;;;;;;;;;;5050904;28;20037;-85
2022/06/24 01:26:44;;;;;;;9.27;8.45;;;;;;;;;;5051354;28;20034;-86
2022/06/24 01:29:11;;;;;;;8.77;7.95;;;;;;;;;;5049012;28;20120;-85
2022/06/24 01:31:38;;;;;;;8.55;7.65;;;;;;;;;;5051142;28;20521;-85
2022/06/24 01:34:05;;;;;;;8.60;7.70;;;;;;;;;;5050995;28;20140;-85
2022/06/24 01:36:31;;;;;;;8.10;7.30;;;;;;;;;;5043379;28;20072;-86
2022/06/24 01:38:57;;;;;;;9.38;8.07;;;;;;;;;;5032011;28;20428;-86
2022/06/24 01:41:23;;;;;;;8.65;7.53;;;;;;;;;;5037811;28;20045;-85
2022/06/24 01:43:49;;;;;;;8.68;7.35;;;;;;;;;;5033800;28;20052;-85
2022/06/24 01:46:15;;;;;;;8.52;7.25;;;;;;;;;;5050092;28;20049;-86
2022/06/24 01:48:41;;;;;;;8.82;7.00;;;;;;;;;;5052043;28;20076;-85
2022/06/24 01:51:08;;;;;;;7.95;7.25;;;;;;;;;;5050390;28;20088;-85
2022/06/24 01:53:34;;;;;;;8.95;7.65;;;;;;;;;;5050410;28;20095;-85
2022/06/24 01:56:00;;;;;;;7.72;6.97;;;;;;;;;;5050464;28;20132;-85
2022/06/24 01:58:26;;;;;;;8.10;7.13;;;;;;;;;;5052327;28;20067;-85
2022/06/24 02:00:52;;;;;;;8.05;7.15;;;;;;;;;;5030965;28;20049;-86
2022/06/24 02:03:18;;;;;;;9.77;7.00;;;;;;;;;;5031485;28;20053;-85
2022/06/24 02:05:45;;;;;;;8.82;7.45;;;;;;;;;;5050055;28;20041;-85
2022/06/24 02:08:11;;;;;;;8.00;7.20;;;;;;;;;;5052588;28;20041;-85
2022/06/24 02:13:29;;;;;;;9.48;8.50;;;;;;;;;;5052457;28;20405;-85
2022/06/24 02:15:59;;;;;;;8.95;8.07;;;;;;;;;;5051545;28;20087;-85
2022/06/24 02:18:26;;;;;;;9.63;8.63;;;;;;;;;;5050942;28;20053;-85
2022/06/24 02:20:52;;;;;;;9.45;8.48;;;;;;;;;;5051564;28;20428;-85
2022/06/24 02:23:18;;;;;;;8.98;8.07;;;;;;;;;;5052224;28;20397;-85
2022/06/24 02:25:45;;;;;;;9.68;8.25;;;;;;;;;;5049600;28;20056;-85
2022/06/24 02:28:11;;;;;;;9.05;8.15;;;;;;;;;;5055022;28;20385;-85
2022/06/24 02:30:38;;;;;;;11.25;9.15;;;;;;;;;;5053585;28;20041;-85
2022/06/24 02:33:04;;;;;;;9.00;7.70;;;;;;;;;;5036249;28;20092;-85
2022/06/24 02:35:30;;;;;;;10.27;8.48;;;;;;;;;;5049599;28;20041;-85
2022/06/24 02:37:56;;;;;;;9.60;7.95;;;;;;;;;;5055449;28;20150;-85
2022/06/24 02:43:16;;;;;;;9.38;7.18;;;;;;;;;;5034804;28;20041;-85
2022/06/24 02:45:42;;;;;;;9.57;7.75;;;;;;;;;;5049361;28;20041;-85
2022/06/24 02:48:08;;;;;;;7.45;6.72;;;;;;;;;;5071373;28;20114;-85
2022/06/24 02:50:38;;;;;;;8.25;7.45;;;;;;;;;;5054667;28;20060;-85
2022/06/24 02:53:04;;;;;;;8.65;7.75;;;;;;;;;;5055812;28;20077;-85
2022/06/24 02:55:31;;;;;;;8.43;7.45;;;;;;;;;;5036919;28;20091;-85
2022/06/24 02:57:57;;;;;;;9.00;8.10;;;;;;;;;;5035284;28;20083;-85
2022/06/24 03:00:23;;;;;;;8.63;7.72;;;;;;;;;;5020265;28;20045;-85
2022/06/24 03:02:49;;;;;;;9.25;8.30;;;;;;;;;;5035287;28;20055;-85
2022/06/24 03:05:15;;;;;;;9.68;8.68;;;;;;;;;;5036584;28;20033;-85
2022/06/24 03:07:41;;;;;;;8.82;7.93;;;;;;;;;;5036780;28;20124;-85
2022/06/24 03:10:07;;;;;;;8.77;7.70;;;;;;;;;;5054246;28;20048;-85
2022/06/24 03:12:33;;;;;;;9.55;8.43;;;;;;;;;;5052796;28;20041;-85
2022/06/24 03:14:59;;;;;;;9.20;8.35;;;;;;;;;;5036694;28;20055;-85
2022/06/24 03:17:25;;;;;;;9.10;8.18;;;;;;;;;;5055040;28;20043;-85
2022/06/24 03:19:51;;;;;;;8.50;7.70;;;;;;;;;;5035775;28;20033;-85
2022/06/24 03:22:17;;;;;;;10.40;8.15;;;;;;;;;;5037334;28;20052;-86
2022/06/24 03:24:43;;;;;;;8.85;7.95;;;;;;;;;;5054315;28;20037;-85
2022/06/24 03:27:09;;;;;;;9.88;7.85;;;;;;;;;;5036348;28;20487;-85
2022/06/24 03:29:35;;;;;;;7.90;7.10;;;;;;;;;;5035846;28;20037;-85
2022/06/24 03:32:01;;;;;;;9.02;8.15;;;;;;;;;;5053025;28;20107;-84
2022/06/24 03:34:27;;;;;;;7.63;6.93;;;;;;;;;;5054438;28;20045;-85
2022/06/24 03:36:54;;;;;;;7.85;6.97;;;;;;;;;;5011244;28;20088;-85
2022/06/24 03:39:20;;;;;;;8.15;7.35;;;;;;;;;;5021740;28;20055;-85
2022/06/24 03:41:46;;;;;;;7.78;7.05;;;;;;;;;;5035617;28;20126;-85
2022/06/24 03:44:12;;;;;;;8.13;7.10;;;;;;;;;;5040120;28;20411;-85
2022/06/24 03:46:38;;;;;;;8.13;7.32;;;;;;;;;;5031396;28;20115;-85
2022/06/24 03:49:04;;;;;;;8.52;7.72;;;;;;;;;;5036438;28;20039;-86
2022/06/24 03:51:30;;;;;;;7.75;7.00;;;;;;;;;;5051592;28;20052;-87
2022/06/24 03:53:56;;;;;;;11.88;7.57;;;;;;;;;;5054691;28;20045;-85
2022/06/24 03:56:22;;;;;;;9.57;7.60;;;;;;;;;;5054202;28;20052;-86
2022/06/24 03:58:48;;;;;;;7.85;7.05;;;;;;;;;;5049547;28;20041;-86
2022/06/24 04:01:14;;;;;;;8.07;7.35;;;;;;;;;;5053957;28;20041;-87
2022/06/24 04:03:40;;;;;;;8.50;7.60;;;;;;;;;;5063057;28;20048;-87
2022/06/24 04:06:06;;;;;;;7.55;6.85;;;;;;;;;;5059334;28;20131;-86
2022/06/24 04:08:32;;;;;;;7.70;6.82;;;;;;;;;;5055492;28;20123;-87
2022/06/24 04:10:58;;;;;;;7.13;6.40;;;;;;;;;;5056709;28;20134;-87
2022/06/24 04:13:24;;;;;;;7.65;6.40;;;;;;;;;;5044205;28;20037;-86
2022/06/24 04:15:50;;;;;;;6.70;5.95;;;;;;;;;;5050047;28;20045;-87
2022/06/24 04:18:16;;;;;;;7.55;6.07;;;;;;;;;;5033985;28;20048;-86
2022/06/24 04:20:44;;;;;;;6.32;5.68;;;;;;;;;;5053300;28;20045;-87
2022/06/24 04:23:10;;;;;;;7.03;5.80;;;;;;;;;;5054626;28;20055;-86
2022/06/24 04:25:36;;;;;;;7.72;5.60;;;;;;;;;;5061418;28;20097;-87
2022/06/24 04:28:02;;;;;;;6.18;5.40;;;;;;;;;;5058553;28;20135;-87
2022/06/24 04:30:28;;;;;;;7.82;6.57;;;;;;;;;;5057746;28;20544;-87
2022/06/24 04:32:54;;;;;;;9.43;7.43;;;;;;;;;;5053093;28;20077;-85
2022/06/24 04:35:20;;;;;;;13.15;8.60;;;;;;;;;;5053736;28;20056;-85
2022/06/24 04:37:46;;;;;;;9.65;7.97;;;;;;;;;;5053486;28;20091;-86
2022/06/24 04:40:13;;;;;;;15.68;12.80;;;;;;;;;;5052287;28;20088;-85
2022/06/24 04:42:42;;;;;;;15.13;13.27;;;;;;;;;;5047530;28;20088;-85
2022/06/24 04:45:09;;;;;;;15.77;14.15;;;;;;;;;;5049052;28;20041;-85
2022/06/24 04:47:35;;;;;;;15.82;14.02;;;;;;;;;;5053535;28;20045;-87
2022/06/24 04:50:01;;;;;;;17.70;15.35;;;;;;;;;;5045532;28;20128;-85
2022/06/24 04:52:27;;;;;;;20.40;16.95;;;;;;;;;;5053194;28;20049;-86
2022/06/24 04:54:53;;;;;;;24.27;19.23;;;;;;;;;;5061794;28;20246;-87
2022/06/24 04:57:19;;;;;;;23.52;19.15;;;;;;;;;;5058689;28;20025;-86
2022/06/24 04:59:45;;;;;;;25.23;14.35;;;;;;;;;;5067959;28;20527;-87
2022/06/24 05:02:11;;;;;;;17.08;10.57;;;;;;;;;;5066702;28;20041;-87
2022/06/24 05:04:37;;;;;;;19.35;9.70;;;;;;;;;;5068011;28;20048;-87
2022/06/24 05:07:04;;;;;;;16.80;7.60;;;;;;;;;;5065796;28;20045;-88
2022/06/24 05:09:30;;;;;;;15.20;6.82;;;;;;;;;;5067607;28;20553;-87
2022/06/24 05:11:56;;;;;;;16.85;6.78;;;;;;;;;;5066053;28;20049;-87
2022/06/24 05:14:22;;;;;;;14.18;6.90;;;;;;;;;;5065759;28;20495;-87
2022/06/24 05:16:48;;;;;;;14.98;6.40;;;;;;;;;;5060984;28;20041;-86
2022/06/24 05:19:14;;;;;;;12.45;5.72;;;;;;;;;;5061306;28;20044;-89
2022/06/24 05:21:40;;;;;;;12.57;5.65;;;;;;;;;;5062226;28;20041;-89
2022/06/24 05:24:06;;;;;;;10.85;5.70;;;;;;;;;;5063283;28;20075;-86
2022/06/24 05:26:32;;;;;;;10.18;5.40;;;;;;;;;;5065375;28;20045;-88
2022/06/24 05:28:58;;;;;;;11.13;5.50;;;;;;;;;;5061944;28;20053;-87
2022/06/24 05:31:24;;;;;;;12.30;5.57;;;;;;;;;;5062879;28;20047;-87
2022/06/24 05:33:50;;;;;;;10.38;5.82;;;;;;;;;;5063424;28;20045;-88
2022/06/24 05:36:16;;;;;;;9.10;5.47;;;;;;;;;;5060048;28;20044;-89
2022/06/24 05:38:46;;;;;;;10.23;5.28;;;;;;;;;;5063903;28;20045;-89
2022/06/24 05:41:12;;;;;;;8.95;4.80;;;;;;;;;;5060070;28;20058;-88
2022/06/24 05:43:38;;;;;;;8.57;4.47;;;;;;;;;;5045479;28;20045;-87
2022/06/24 05:46:04;;;;;;;9.10;4.82;;;;;;;;;;5062105;28;20037;-89
2022/06/24 05:48:30;;;;;;;9.80;4.70;;;;;;;;;;5061979;28;20048;-87
2022/06/24 05:50:56;;;;;;;7.15;4.40;;;;;;;;;;5065283;28;20162;-86
2022/06/24 05:56:08;;;;;;;9.27;5.18;;;;;;;;;;5069319;28;20080;-89
2022/06/24 05:58:34;;;;;;;14.50;4.68;;;;;;;;;;5046091;28;20041;-88
2022/06/24 06:01:08;;;;;;;11.85;5.07;;;;;;;;;;5064826;28;20067;-89
2022/06/24 06:03:34;;;;;;;8.32;4.32;;;;;;;;;;5067620;28;20056;-88
2022/06/24 06:06:00;;;;;;;13.20;4.20;;;;;;;;;;5050290;28;20041;-88
2022/06/24 06:08:26;;;;;;;11.70;4.40;;;;;;;;;;5062746;28;20091;-90
2022/06/24 06:10:52;;;;;;;12.80;3.97;;;;;;;;;;5066702;28;20032;-88
2022/06/24 06:13:18;;;;;;;10.75;3.95;;;;;;;;;;5069272;28;20123;-87
2022/06/24 06:15:45;;;;;;;14.02;4.43;;;;;;;;;;5050224;28;20044;-87
2022/06/24 06:18:11;;;;;;;8.93;3.80;;;;;;;;;;5045143;28;20266;-88
2022/06/24 06:20:38;;;;;;;8.40;3.88;;;;;;;;;;5070179;28;20052;-87
2022/06/24 06:23:04;;;;;;;8.13;3.80;;;;;;;;;;5014897;28;20041;-89
2022/06/24 06:25:31;;;;;;;6.22;3.60;;;;;;;;;;5044882;28;20045;-88
2022/06/24 06:27:57;;;;;;;9.25;4.00;;;;;;;;;;5064023;28;20045;-89
2022/06/24 06:30:23;;;;;;;8.75;4.10;;;;;;;;;;5045175;28;20048;-90
2022/06/24 06:32:49;;;;;;;9.98;4.45;;;;;;;;;;5059351;28;20093;-86
2022/06/24 06:35:15;;;;;;;8.15;4.15;;;;;;;;;;5057492;28;20063;-87
2022/06/24 06:37:41;;;;;;;8.18;4.22;;;;;;;;;;5049139;28;20041;-87
2022/06/24 06:40:08;;;;;;;9.35;4.90;;;;;;;;;;5043431;28;20049;-87
2022/06/24 06:42:34;;;;;;;10.38;4.57;;;;;;;;;;5054692;28;20070;-86
2022/06/24 06:45:00;;;;;;;11.82;5.45;;;;;;;;;;5063202;28;20123;-85
2022/06/24 06:47:26;;;;;;;16.08;5.55;;;;;;;;;;5049081;28;20049;-85
2022/06/24 06:49:52;;;;;;;9.80;5.47;;;;;;;;;;5051557;28;20132;-85
2022/06/24 06:52:18;;;;;;;12.15;5.22;;;;;;;;;;5067470;28;20045;-85
2022/06/24 06:54:44;;;;;;;14.75;5.82;;;;;;;;;;5065269;28;20040;-85
2022/06/24 06:57:10;;;;;;;14.45;6.43;;;;;;;;;;5068738;28;20045;-85
2022/06/24 06:59:36;;;;;;;16.70;5.03;;;;;;;;;;5068768;28;20043;-86
2022/06/24 07:02:02;;;;;;;12.40;6.18;;;;;;;;;;5071313;28;20052;-86
2022/06/24 07:04:28;;;;;;;14.85;6.18;;;;;;;;;;5067373;28;20059;-86
2022/06/24 07:06:54;;;;;;;14.18;6.40;;;;;;;;;;5069266;28;20077;-87
2022/06/24 07:09:20;;;;;;;15.43;7.00;;;;;;;;;;5071598;28;20108;-86
2022/06/24 07:11:46;;;;;;;12.18;7.20;;;;;;;;;;5073449;28;20067;-86
2022/06/24 07:14:12;;;;;;;14.32;6.50;;;;;;;;;;5069874;28;20045;-86
2022/06/24 07:16:38;;;;;;;12.10;6.43;;;;;;;;;;5076034;28;20041;-86
2022/06/24 07:19:04;;;;;;;13.45;6.35;;;;;;;;;;5069973;28;20108;-86
2022/06/24 07:21:30;;;;;;;12.48;6.95;;;;;;;;;;5068975;28;20049;-86
2022/06/24 07:23:56;;;;;;;14.32;7.22;;;;;;;;;;5068474;28;20040;-87
2022/06/24 07:26:22;;;;;;;15.77;7.50;;;;;;;;;;5075191;28;20048;-87
2022/06/24 07:28:49;;;;;;;14.40;7.25;;;;;;;;;;5056669;28;20042;-87
2022/06/24 07:31:14;;;;;;;12.35;6.50;;;;;;;;;;5056914;28;20052;-86
2022/06/24 07:33:41;;;;;;;10.30;6.78;;;;;;;;;;5065241;28;20107;-87
2022/06/24 07:36:07;;;;;;;10.40;6.32;;;;;;;;;;5077901;28;20036;-87
2022/06/24 07:38:33;;;;;;;12.90;7.70;;;;;;;;;;5078143;28;20085;-86
2022/06/24 07:40:59;;;;;;;14.07;6.97;;;;;;;;;;5027550;23;20085;-74
2022/06/24 07:43:25;;;;;;;13.63;6.85;;;;;;;;;;4997603;28;20081;-75
2022/06/24 07:45:54;;;;;;;13.85;7.47;;;;;;;;;;5014895;28;20061;-74
2022/06/24 07:48:20;;;;;;;13.60;7.10;;;;;;;;;;5007687;28;20069;-79
2022/06/24 07:50:46;;;;;;;12.30;6.82;;;;;;;;;;5011190;28;20042;-74
2022/06/24 07:53:12;;;;;;;10.43;6.55;;;;;;;;;;4997077;28;20049;-76
2022/06/24 07:58:23;;;;;;;11.82;6.85;;;;;;;;;;4989725;28;20062;-74
2022/06/24 08:00:49;;;;;;;9.45;6.70;;;;;;;;;;5000848;28;20048;-75
2022/06/24 08:03:16;;;;;;;10.27;6.53;;;;;;;;;;5014294;28;20080;-75
2022/06/24 08:05:42;;;;;;;12.68;6.97;;;;;;;;;;5013640;28;20066;-75
2022/06/24 08:08:08;;;;;;;12.32;7.40;;;;;;;;;;5011146;28;20108;-75
2022/06/24 08:10:34;;;;;;;11.57;7.35;;;;;;;;;;4982454;28;20383;-75
2022/06/24 08:13:00;;;;;;;11.40;7.00;;;;;;;;;;4977253;28;20382;-76
2022/06/24 08:15:26;;;;;;;11.18;7.22;;;;;;;;;;4978491;28;20046;-85
2022/06/24 08:17:53;;;;;;;11.75;7.40;;;;;;;;;;5000607;28;20045;-77
2022/06/24 08:20:19;;;;;;;13.02;7.80;;;;;;;;;;4995531;28;20141;-76
2022/06/24 08:22:45;;;;;;;12.27;7.78;;;;;;;;;;4981074;28;20394;-76
2022/06/24 08:25:11;;;;;;;12.48;7.03;;;;;;;;;;4991027;28;20073;-76
2022/06/24 08:27:37;;;;;;;12.80;8.13;;;;;;;;;;4994580;28;20457;-77
2022/06/24 08:30:04;;;;;;;13.25;7.85;;;;;;;;;;4993936;28;20053;-76
2022/06/24 08:32:30;;;;;;;14.38;8.65;;;;;;;;;;4978601;28;20046;-77
2022/06/24 08:34:56;;;;;;;10.45;7.15;;;;;;;;;;4991976;28;20420;-76
2022/06/24 08:37:22;;;;;;;11.60;8.02;;;;;;;;;;4981434;28;20486;-76
2022/06/24 08:39:48;;;;;;;8.93;7.70;;;;;;;;;;4992950;28;20448;-76
2022/06/24 08:42:14;;;;;;;12.32;8.23;;;;;;;;;;4995857;28;20137;-77
2022/06/24 08:44:41;;;;;;;12.95;7.80;;;;;;;;;;5010810;28;20034;-76
2022/06/24 08:47:12;;;;;;;13.95;8.50;;;;;;;;;;5009684;28;20481;-77
2022/06/24 08:49:38;;;;;;;14.25;8.93;;;;;;;;;;4998175;28;20050;-76
2022/06/24 08:52:05;;;;;;;13.63;8.57;;;;;;;;;;4993272;28;20069;-77
2022/06/24 08:54:31;;;;;;;11.60;8.27;;;;;;;;;;4998229;28;20042;-76
2022/06/24 08:56:58;;;;;;;14.57;8.65;;;;;;;;;;4993813;28;20065;-76
2022/06/24 08:59:24;;;;;;;11.43;8.48;;;;;;;;;;4994153;28;20060;-76
2022/06/24 09:01:50;;;;;;;10.45;8.88;;;;;;;;;;4997622;28;20054;-76
2022/06/24 09:04:16;;;;;;;11.35;8.90;;;;;;;;;;5007011;28;20489;-79
2022/06/24 09:06:42;;;;;;;12.77;9.68;;;;;;;;;;5005857;28;20076;-76
2022/06/24 09:09:08;;;;;;;11.07;9.05;;;;;;;;;;5005404;28;20112;-76
2022/06/24 09:11:42;;;;;;;10.55;8.30;;;;;;;;;;5008981;28;20042;-76
2022/06/24 09:14:08;;;;;;;15.25;9.30;;;;;;;;;;4993072;28;20050;-76
2022/06/24 09:16:38;;;;;;;12.27;9.82;;;;;;;;;;5011748;28;20049;-78
2022/06/24 09:19:06;;;;;;;11.27;9.30;;;;;;;;;;5024728;28;20053;-79
2022/06/24 09:21:39;;;;;;;12.07;9.75;;;;;;;;;;5012218;28;20088;-78
2022/06/24 09:24:06;;;;;;;12.02;9.75;;;;;;;;;;5019980;28;20042;-79
2022/06/24 09:26:36;;;;;;;11.45;9.25;;;;;;;;;;5033568;28;20038;-76
2022/06/24 09:29:13;;;;;;;14.20;10.05;;;;;;;;;;5024470;28;20045;-79
2022/06/24 09:31:39;;;;;;;13.43;9.77;;;;;;;;;;5026171;28;20054;-80
2022/06/24 09:34:09;;;;;;;14.15;9.25;;;;;;;;;;5028394;28;20038;-81
2022/06/24 09:36:36;;;;;;;13.18;9.15;;;;;;;;;;5039846;28;20049;-81
2022/06/24 09:39:04;;;;;;;11.45;8.68;;;;;;;;;;5027338;28;20042;-81
2022/06/24 09:41:31;;;;;;;10.55;7.55;;;;;;;;;;5020895;28;20050;-80
2022/06/24 09:43:58;;;;;;;14.10;8.63;;;;;;;;;;5015078;28;20049;-81
2022/06/24 09:46:25;;;;;;;10.65;7.70;;;;;;;;;;4985351;28;20042;-80
2022/06/24 09:48:53;;;;;;;9.85;6.97;;;;;;;;;;5018308;28;20027;-80
2022/06/24 09:51:19;;;;;;;10.32;7.47;;;;;;;;;;5031668;28;20046;-80
2022/06/24 09:53:46;;;;;;;10.95;7.15;;;;;;;;;;5034112;28;20018;-81
2022/06/24 09:56:13;;;;;;;10.90;7.95;;;;;;;;;;5036850;28;20034;-81
2022/06/24 09:58:42;;;;;;;9.60;7.40;;;;;;;;;;5026196;28;20093;-82
2022/06/24 10:01:08;;;;;;;11.27;8.13;;;;;;;;;;5022203;28;20037;-82
2022/06/24 10:03:35;;;;;;;9.38;7.28;;;;;;;;;;5033826;28;20042;-81
2022/06/24 10:06:05;;;;;;;9.93;6.80;;;;;;;;;;4997029;28;20070;-82
2022/06/24 10:08:33;;;;;;;8.65;7.15;;;;;;;;;;5012989;28;20105;-88
2022/06/24 10:11:00;;;;;;;11.25;7.97;;;;;;;;;;4982196;28;20042;-81
2022/06/24 10:13:26;;;;;;;9.23;6.65;;;;;;;;;;5017226;28;20026;-80
2022/06/24 10:16:05;;;;;;;8.68;5.53;;;;;;;;;;5016673;28;20061;-80
2022/06/24 10:18:36;;;;;;;7.63;5.10;;;;;;;;;;4996908;28;20058;-82
2022/06/24 10:21:07;;;;;;;7.55;5.85;;;;;;;;;;5016973;28;20070;-81
2022/06/24 10:23:40;;;;;;;7.93;4.53;;;;;;;;;;5015573;28;20113;-81
2022/06/24 10:26:16;;;;;;;6.75;5.05;;;;;;;;;;5013422;28;20080;-80
2022/06/24 10:29:14;;;;;;;8.25;5.00;;;;;;;;;;5016207;28;20043;-80
2022/06/24 10:34:09;;;;;;;4.78;4.07;;;;;;;;;;4961399;28;20093;-78
2022/06/24 10:36:35;;;;;;;7.45;4.40;;;;;;;;;;4940842;29;20048;-78
2022/06/24 10:39:18;;;;;;;6.22;4.55;;;;;;;;;;4967341;29;20043;-84
2022/06/24 10:41:44;;;;;;;5.85;4.85;;;;;;;;;;4971543;29;20159;-79
2022/06/24 10:44:19;;;;;;;7.07;4.53;;;;;;;;;;4956202;28;20066;-79
2022/06/24 10:46:45;;;;;;;5.95;4.35;;;;;;;;;;4969716;29;20038;-79
2022/06/24 10:49:11;;;;;;;5.40;4.85;;;;;;;;;;4974692;28;20043;-80
2022/06/24 10:51:37;;;;;;;7.20;5.30;;;;;;;;;;4953177;29;20054;-76
2022/06/24 10:54:06;;;;;;;6.60;5.47;;;;;;;;;;4943174;28;20065;-76
2022/06/24 10:56:47;;;;;;;7.65;5.53;;;;;;;;;;4969054;29;20111;-75
2022/06/24 10:59:16;;;;;;;8.07;4.65;;;;;;;;;;4974511;29;20043;-77
2022/06/24 11:01:43;;;;;;;11.18;5.85;;;;;;;;;;4959597;28;20051;-82
2022/06/24 11:04:11;;;;;;;13.32;7.68;;;;;;;;;;4938605;29;20047;-75
2022/06/24 11:06:38;;;;;;;12.27;8.48;;;;;;;;;;4978311;28;20064;-79
2022/06/24 11:09:08;;;;;;;15.85;8.60;;;;;;;;;;5026285;28;20051;-78
2022/06/24 11:11:34;;;;;;;15.07;8.63;;;;;;;;;;5027533;28;20058;-79
2022/06/24 11:14:01;;;;;;;12.15;7.90;;;;;;;;;;5019433;28;20057;-77
2022/06/24 11:16:28;;;;;;;10.48;7.82;;;;;;;;;;4999470;28;20049;-77
2022/06/24 11:18:54;;;;;;;12.10;8.38;;;;;;;;;;4997018;28;20100;-75
2022/06/24 11:21:20;;;;;;;11.60;8.85;;;;;;;;;;4995770;28;20383;-75
2022/06/24 11:23:47;;;;;;;11.88;7.97;;;;;;;;;;4997646;28;20039;-75
2022/06/24 11:26:20;;;;;;;15.73;9.00;;;;;;;;;;4980609;28;20054;-75
2022/06/24 11:28:52;;;;;;;13.45;9.98;;;;;;;;;;5014858;28;20046;-75
2022/06/24 11:31:25;;;;;;;12.30;9.40;;;;;;;;;;4998591;28;20046;-75
2022/06/24 11:33:52;;;;;;;10.77;9.35;;;;;;;;;;5012113;28;20049;-75
2022/06/24 11:36:23;;;;;;;13.18;10.23;;;;;;;;;;4980352;28;20054;-75
2022/06/24 11:38:53;;;;;;;12.13;9.50;;;;;;;;;;5015029;28;20050;-74
2022/06/24 11:41:29;;;;;;;10.15;9.10;;;;;;;;;;5015048;28;20050;-74
2022/06/24 11:43:55;;;;;;;12.07;8.95;;;;;;;;;;5015228;28;20046;-75
2022/06/24 11:46:21;;;;;;;10.93;9.82;;;;;;;;;;4997114;28;20442;-75
2022/06/24 11:48:47;;;;;;;11.77;10.40;;;;;;;;;;4981162;28;20133;-75
2022/06/24 11:51:20;;;;;;;12.68;10.40;;;;;;;;;;4997062;28;20046;-76
2022/06/24 11:54:02;;;;;;;13.30;10.45;;;;;;;;;;5015330;28;20129;-75
2022/06/24 11:56:29;;;;;;;10.30;9.18;;;;;;;;;;4994940;28;20468;-75
2022/06/24 11:58:59;;;;;;;11.23;9.68;;;;;;;;;;4977821;28;20043;-75
2022/06/24 12:01:26;;;;;;;13.88;10.70;;;;;;;;;;4980629;28;20512;-75
2022/06/24 12:03:54;;;;;;;13.48;10.50;;;;;;;;;;5014830;28;20517;-76
2022/06/24 12:06:20;;;;;;;13.18;9.48;;;;;;;;;;4980325;28;20490;-76
2022/06/24 12:08:47;;;;;;;11.27;10.10;;;;;;;;;;4995033;28;20047;-76
2022/06/24 12:11:14;;;;;;;13.65;10.90;;;;;;;;;;4977861;28;20050;-76
2022/06/24 12:13:41;;;;;;;15.93;11.32;;;;;;;;;;4995099;28;20073;-75
2022/06/24 12:16:07;;;;;;;15.15;12.75;;;;;;;;;;4977178;28;20096;-76
2022/06/24 12:18:34;;;;;;;18.23;11.98;;;;;;;;;;4994956;28;20074;-76
2022/06/24 12:21:01;;;;;;;13.73;11.07;;;;;;;;;;4995438;28;20054;-75
2022/06/24 12:23:32;;;;;;;12.93;10.63;;;;;;;;;;4994982;28;20104;-76
2022/06/24 12:25:58;;;;;;;12.05;10.68;;;;;;;;;;4999901;28;20061;-76
2022/06/24 12:28:25;;;;;;;11.48;10.00;;;;;;;;;;4994820;28;20085;-76
2022/06/24 12:31:05;;;;;;;12.00;10.30;;;;;;;;;;5002296;28;20481;-79
2022/06/24 12:33:34;;;;;;;13.65;9.95;;;;;;;;;;4980998;28;20050;-76
2022/06/24 12:36:03;;;;;;;14.70;10.23;;;;;;;;;;4995753;28;20042;-76
2022/06/24 12:38:29;;;;;;;13.65;10.90;;;;;;;;;;4984092;28;20497;-76
2022/06/24 12:41:09;;;;;;;12.98;11.07;;;;;;;;;;5005446;28;20056;-76
2022/06/24 12:43:35;;;;;;;14.23;10.77;;;;;;;;;;5009485;28;20074;-75
2022/06/24 12:46:03;;;;;;;12.60;11.07;;;;;;;;;;5010659;28;20053;-75
2022/06/24 12:51:14;;;;;;;14.68;13.02;;;;;;;;;;4983477;28;21717;-75
2022/06/24 12:53:45;;;;;;;16.58;13.98;;;;;;;;;;5008213;28;20050;-76
2022/06/24 12:56:11;;;;;;;14.70;12.65;;;;;;;;;;4995510;28;20524;-76
2022/06/24 12:58:37;;;;;;;14.88;13.32;;;;;;;;;;4996970;28;20477;-76
2022/06/24 13:01:03;;;;;;;14.00;12.60;;;;;;;;;;4994894;28;20046;-76
2022/06/24 13:03:29;;;;;;;16.08;13.43;;;;;;;;;;4996040;28;20046;-76
2022/06/24 13:05:55;;;;;;;15.38;13.77;;;;;;;;;;5000856;28;20129;-76
2022/06/24 13:08:22;;;;;;;15.18;13.55;;;;;;;;;;5003514;28;20087;-76
2022/06/24 13:10:48;;;;;;;16.05;14.32;;;;;;;;;;5003273;28;20046;-75
2022/06/24 13:13:15;;;;;;;15.90;14.20;;;;;;;;;;5011429;28;20042;-76
2022/06/24 13:15:41;;;;;;;18.13;14.63;;;;;;;;;;5015069;28;20138;-76
2022/06/24 13:18:07;;;;;;;17.98;14.38;;;;;;;;;;5001475;28;20501;-76
2022/06/24 13:20:33;;;;;;;15.75;13.90;;;;;;;;;;4995939;28;20046;-75
2022/06/24 13:22:59;;;;;;;17.77;13.63;;;;;;;;;;5003879;28;20128;-76
2022/06/24 13:25:25;;;;;;;16.08;14.55;;;;;;;;;;4998509;28;20057;-76
2022/06/24 13:27:52;;;;;;;17.77;16.05;;;;;;;;;;4997440;28;20077;-77
2022/06/24 13:30:19;;;;;;;20.23;17.38;;;;;;;;;;4998534;28;20478;-76
2022/06/24 13:32:45;;;;;;;18.70;16.70;;;;;;;;;;4999517;28;20057;-74
2022/06/24 13:35:12;;;;;;;19.13;16.95;;;;;;;;;;4996433;28;20408;-76
2022/06/24 13:37:38;;;;;;;20.25;18.08;;;;;;;;;;4999263;28;20053;-74
2022/06/24 13:40:05;;;;;;;20.13;16.42;;;;;;;;;;5010447;28;20061;-74
2022/06/24 13:42:32;;;;;;;20.92;17.27;;;;;;;;;;5018777;28;20417;-74
2022/06/24 13:44:58;;;;;;;21.00;18.83;;;;;;;;;;5015626;28;20042;-74
2022/06/24 13:47:24;;;;;;;19.80;16.92;;;;;;;;;;5009566;28;20050;-74
2022/06/24 13:49:51;;;;;;;20.48;17.13;;;;;;;;;;4995288;28;20073;-75
2022/06/24 13:52:17;;;;;;;19.92;17.85;;;;;;;;;;4993782;28;20049;-74
2022/06/24 13:54:43;;;;;;;18.98;16.77;;;;;;;;;;5001285;28;20402;-73
2022/06/24 13:57:09;;;;;;;18.95;17.15;;;;;;;;;;5014229;28;20046;-75
2022/06/24 13:59:35;;;;;;;19.60;16.98;;;;;;;;;;5006171;28;20061;-74
2022/06/24 14:02:01;;;;;;;18.45;16.65;;;;;;;;;;5002634;28;20069;-74
2022/06/24 14:04:27;;;;;;;19.17;17.27;;;;;;;;;;5016413;28;20038;-74
2022/06/24 14:06:53;;;;;;;19.80;17.83;;;;;;;;;;5006242;28;20156;-75
2022/06/24 14:09:19;;;;;;;19.98;18.00;;;;;;;;;;4995076;28;20063;-75
2022/06/24 14:11:45;;;;;;;20.55;18.33;;;;;;;;;;4993696;28;20046;-75
2022/06/24 14:14:12;;;;;;;23.20;20.70;;;;;;;;;;4994649;28;20050;-74
2022/06/24 14:16:38;;;;;;;21.95;19.85;;;;;;;;;;4998533;28;20054;-74
2022/06/24 14:19:06;;;;;;;23.00;20.58;;;;;;;;;;5005178;28;20061;-74
2022/06/24 14:21:34;;;;;;;22.45;20.30;;;;;;;;;;5008985;28;20061;-75
2022/06/24 14:27:10;;;;;;;17.08;15.48;;;;;;;;;;4981363;28;20133;-77
2022/06/24 14:29:38;;;;;;;18.13;16.33;;;;;;;;;;4997177;28;20058;-74
2022/06/24 14:32:04;;;;;;;17.90;16.10;;;;;;;;;;5004302;28;20490;-79
2022/06/24 14:34:33;;;;;;;16.05;14.57;;;;;;;;;;4975595;28;20065;-74
2022/06/24 14:37:00;;;;;;;14.82;13.32;;;;;;;;;;4994909;28;20061;-74
2022/06/24 14:42:11;;;;;;;13.50;12.20;;;;;;;;;;4980303;28;20058;-74
2022/06/24 14:44:37;;;;;;;15.18;13.60;;;;;;;;;;4980526;28;20133;-74
2022/06/24 14:47:04;;;;;;;14.93;13.43;;;;;;;;;;4973914;28;20498;-74
2022/06/24 14:49:30;;;;;;;17.58;15.70;;;;;;;;;;4990193;28;20042;-73
2022/06/24 14:51:57;;;;;;;17.40;15.70;;;;;;;;;;4996034;28;20054;-75
2022/06/24 14:54:23;;;;;;;17.88;16.15;;;;;;;;;;4984908;28;20059;-74